Time;durP1;ratioP1;P1;durP2;ratioP2;P2;SDS_P1;SDS_P2;PMS_P1;PMS_P2;Temp;Humidity;BMP_temperature;BMP_pressure;BME280_temperature;BME280_humidity;BME280_pressure;Samples;Min_cycle;Max_cycle;Signal;HPM_P1;HPM_P2
2023/09/07 00:00:24;;;;;;;4.80;4.50;;;16.90;99.90;;;;;;5077042;28;20196;-82
2023/09/07 00:02:49;;;;;;;4.80;4.40;;;16.80;99.90;;;;;;5065695;28;20211;-87
2023/09/07 00:05:15;;;;;;;5.40;4.90;;;16.90;99.90;;;;;;5068551;28;20205;-86
2023/09/07 00:07:41;;;;;;;5.37;4.57;;;16.90;99.90;;;;;;5071387;28;20160;-85
2023/09/07 00:10:08;;;;;;;5.10;4.60;;;16.80;99.90;;;;;;5064778;28;20195;-87
2023/09/07 00:12:34;;;;;;;4.60;4.30;;;16.80;99.90;;;;;;5061686;28;20642;-87
2023/09/07 00:15:00;;;;;;;4.47;4.17;;;16.80;99.90;;;;;;5059765;28;20287;-86
2023/09/07 00:17:25;;;;;;;4.73;4.33;;;16.80;99.90;;;;;;5060063;28;20176;-87
2023/09/07 00:19:52;;;;;;;5.07;4.60;;;16.80;99.90;;;;;;5060404;28;20213;-87
2023/09/07 00:22:19;;;;;;;4.90;4.60;;;16.80;99.90;;;;;;5059493;28;20174;-87
2023/09/07 00:24:46;;;;;;;4.67;4.27;;;16.80;99.90;;;;;;5061929;28;20184;-86
2023/09/07 00:27:11;;;;;;;4.37;4.07;;;16.80;99.90;;;;;;5063079;28;20178;-87
2023/09/07 00:29:40;;;;;;;4.73;4.33;;;16.80;99.90;;;;;;5060875;28;20207;-80
2023/09/07 00:32:05;;;;;;;4.90;4.60;;;16.80;99.90;;;;;;5060106;28;20176;-85
2023/09/07 00:34:33;;;;;;;4.77;4.27;;;16.80;99.90;;;;;;5059980;28;20172;-81
2023/09/07 00:37:00;;;;;;;5.03;4.67;;;16.80;99.90;;;;;;5061248;28;20185;-79
2023/09/07 00:39:26;;;;;;;4.43;4.13;;;16.80;99.90;;;;;;5062357;28;20204;-85
2023/09/07 00:41:51;;;;;;;4.40;4.10;;;16.70;99.90;;;;;;5079019;28;20172;-87
2023/09/07 00:44:17;;;;;;;4.50;4.13;;;16.70;99.90;;;;;;5063683;28;20266;-86
2023/09/07 00:46:44;;;;;;;4.90;4.40;;;16.70;99.90;;;;;;5063633;28;20191;-87
2023/09/07 00:49:13;;;;;;;4.80;4.40;;;16.70;99.90;;;;;;5068245;28;20203;-86
2023/09/07 00:51:40;;;;;;;4.53;4.20;;;16.70;99.90;;;;;;5061405;28;20221;-86
2023/09/07 00:54:06;;;;;;;5.10;4.47;;;16.70;99.90;;;;;;5059929;28;20191;-87
2023/09/07 00:56:32;;;;;;;4.57;4.17;;;16.70;99.90;;;;;;5059374;28;20221;-86
2023/09/07 00:59:01;;;;;;;4.77;4.43;;;16.70;99.90;;;;;;5060367;28;20693;-87
2023/09/07 01:01:26;;;;;;;4.70;4.30;;;16.60;99.90;;;;;;5066083;28;20194;-79
2023/09/07 01:03:52;;;;;;;4.90;4.53;;;16.60;99.90;;;;;;5060509;28;20605;-82
2023/09/07 01:06:28;;;;;;;4.63;4.33;;;17.30;99.90;;;;;;5060694;28;20232;-87
2023/09/07 01:08:56;;;;;;;4.90;4.50;;;16.60;99.90;;;;;;5059811;28;20226;-86
2023/09/07 01:11:26;;;;;;;4.63;4.33;;;16.60;99.90;;;;;;5059921;28;20187;-87
2023/09/07 01:13:53;;;;;;;4.73;4.40;;;16.60;99.90;;;;;;5061893;28;20177;-87
2023/09/07 01:16:20;;;;;;;4.90;4.50;;;16.50;99.90;;;;;;5060706;28;20532;-87
2023/09/07 01:18:47;;;;;;;6.77;5.83;;;16.50;99.90;;;;;;5059221;28;20168;-87
2023/09/07 01:21:13;;;;;;;4.80;4.40;;;16.50;99.90;;;;;;5060687;28;20182;-85
2023/09/07 01:23:42;;;;;;;4.97;4.67;;;16.50;99.90;;;;;;5060954;28;20235;-86
2023/09/07 01:26:09;;;;;;;5.37;4.40;;;16.50;99.90;;;;;;5075394;28;20176;-80
2023/09/07 01:28:37;;;;;;;6.40;4.50;;;16.50;99.90;;;;;;5063776;28;20190;-88
2023/09/07 01:31:03;;;;;;;5.10;4.70;;;16.50;99.90;;;;;;5070499;28;20172;-85
2023/09/07 01:33:28;;;;;;;4.87;4.33;;;16.50;99.90;;;;;;5077065;28;20191;-82
2023/09/07 01:35:54;;;;;;;5.00;4.67;;;16.50;99.90;;;;;;5078529;28;20168;-81
2023/09/07 01:38:20;;;;;;;5.03;4.63;;;16.50;99.90;;;;;;5077577;28;20179;-84
2023/09/07 01:40:46;;;;;;;5.17;4.73;;;16.50;99.90;;;;;;5063687;28;20205;-87
2023/09/07 01:43:12;;;;;;;6.33;4.87;;;16.40;99.90;;;;;;5075324;28;20172;-85
2023/09/07 01:45:38;;;;;;;4.70;4.40;;;16.40;99.90;;;;;;5064004;28;20178;-87
2023/09/07 01:48:10;;;;;;;5.23;4.83;;;16.40;99.90;;;;;;5062823;28;20206;-85
2023/09/07 01:50:36;;;;;;;5.20;4.80;;;16.40;99.90;;;;;;5066156;28;20238;-81
2023/09/07 01:53:05;;;;;;;5.13;4.73;;;16.50;99.90;;;;;;5075239;28;20582;-87
2023/09/07 01:55:32;;;;;;;5.93;4.90;;;16.50;99.90;;;;;;5059680;28;20196;-86
2023/09/07 01:57:58;;;;;;;5.33;4.90;;;16.40;99.90;;;;;;5058065;28;20179;-86
2023/09/07 02:00:23;;;;;;;5.20;4.73;;;16.40;99.90;;;;;;5058519;28;20204;-85
2023/09/07 02:02:49;;;;;;;5.47;4.63;;;16.40;99.90;;;;;;5059205;28;20643;-86
2023/09/07 02:05:16;;;;;;;5.03;4.53;;;16.40;99.90;;;;;;5058941;28;20187;-84
2023/09/07 02:07:42;;;;;;;6.40;4.93;;;16.30;99.90;;;;;;5060256;28;20236;-88
2023/09/07 02:10:08;;;;;;;5.20;4.70;;;16.30;99.90;;;;;;5060163;28;20179;-86
2023/09/07 02:12:34;;;;;;;6.43;5.30;;;16.30;99.90;;;;;;5059898;28;20177;-87
2023/09/07 02:15:03;;;;;;;5.57;5.07;;;16.30;99.90;;;;;;5059486;28;20236;-87
2023/09/07 02:17:30;;;;;;;5.17;4.77;;;16.30;99.90;;;;;;5059103;28;20267;-85
2023/09/07 02:19:57;;;;;;;5.37;4.83;;;16.30;99.90;;;;;;5061153;28;20203;-86
2023/09/07 02:22:23;;;;;;;5.13;4.73;;;16.30;99.90;;;;;;5062446;28;20184;-86
2023/09/07 02:24:50;;;;;;;5.53;5.13;;;16.20;99.90;;;;;;5058694;28;20172;-87
2023/09/07 02:27:16;;;;;;;5.27;4.87;;;16.20;99.90;;;;;;5059021;28;20179;-86
2023/09/07 02:29:41;;;;;;;4.90;4.50;;;16.20;99.90;;;;;;5058780;28;20235;-87
2023/09/07 02:32:08;;;;;;;4.87;4.57;;;16.20;99.90;;;;;;5058655;28;20192;-84
2023/09/07 02:34:36;;;;;;;5.37;4.97;;;16.10;99.90;;;;;;5060052;28;20179;-88
2023/09/07 02:37:02;;;;;;;6.23;5.10;;;16.10;99.90;;;;;;5060310;28;20538;-87
2023/09/07 02:39:28;;;;;;;5.57;5.07;;;16.20;99.90;;;;;;5068137;28;20195;-88
2023/09/07 02:41:54;;;;;;;5.70;4.60;;;16.10;99.90;;;;;;5061539;28;20176;-86
2023/09/07 02:44:20;;;;;;;5.07;4.67;;;16.10;99.90;;;;;;5064930;28;20184;-86
2023/09/07 02:46:46;;;;;;;8.00;5.40;;;16.10;99.90;;;;;;5063452;28;20632;-87
2023/09/07 02:49:12;;;;;;;5.67;5.17;;;16.10;99.90;;;;;;5062881;28;20253;-86
2023/09/07 02:51:38;;;;;;;5.97;5.43;;;16.10;99.90;;;;;;5067953;28;20237;-79
2023/09/07 02:54:05;;;;;;;7.47;4.83;;;16.00;99.90;;;;;;5072194;28;20727;-80
2023/09/07 02:56:31;;;;;;;5.30;4.90;;;16.10;99.90;;;;;;5061934;28;20270;-83
2023/09/07 02:58:56;;;;;;;5.40;4.97;;;16.10;99.90;;;;;;5043241;28;20266;-82
2023/09/07 03:01:22;;;;;;;5.20;4.80;;;16.10;99.90;;;;;;5061152;28;20642;-79
2023/09/07 03:03:48;;;;;;;4.87;4.53;;;16.00;99.90;;;;;;5070833;28;20494;-79
2023/09/07 03:06:18;;;;;;;5.30;4.90;;;16.00;99.90;;;;;;5061882;28;20173;-79
2023/09/07 03:08:47;;;;;;;5.13;4.73;;;16.00;99.90;;;;;;5063016;28;20167;-83
2023/09/07 03:11:13;;;;;;;5.50;5.03;;;16.00;99.90;;;;;;5064499;28;20180;-80
2023/09/07 03:13:39;;;;;;;5.67;5.20;;;16.00;99.90;;;;;;5065055;28;20183;-81
2023/09/07 03:16:05;;;;;;;5.40;4.90;;;16.00;99.90;;;;;;5070458;28;20186;-82
2023/09/07 03:18:31;;;;;;;5.70;5.20;;;16.00;99.90;;;;;;5069683;28;20178;-81
2023/09/07 03:21:00;;;;;;;5.50;5.00;;;16.00;99.90;;;;;;5070101;28;20242;-76
2023/09/07 03:23:27;;;;;;;5.97;5.27;;;16.00;99.90;;;;;;5061837;28;20659;-82
2023/09/07 03:25:53;;;;;;;5.73;5.23;;;16.00;99.90;;;;;;5065804;28;20238;-82
2023/09/07 03:28:19;;;;;;;5.23;4.87;;;15.90;99.90;;;;;;5077915;28;20157;-81
2023/09/07 03:30:45;;;;;;;5.33;4.83;;;15.90;99.90;;;;;;5078167;28;20168;-82
2023/09/07 03:33:10;;;;;;;6.17;5.30;;;15.90;99.90;;;;;;5070109;28;20171;-84
2023/09/07 03:35:37;;;;;;;5.60;5.10;;;15.90;99.90;;;;;;5070264;28;20168;-79
2023/09/07 03:38:03;;;;;;;5.37;4.97;;;16.00;99.90;;;;;;5077795;28;20157;-82
2023/09/07 03:40:29;;;;;;;5.60;5.10;;;15.90;99.90;;;;;;5077919;28;20667;-83
2023/09/07 03:42:55;;;;;;;5.73;4.70;;;15.90;99.90;;;;;;5073664;28;20168;-85
2023/09/07 03:45:20;;;;;;;5.67;4.97;;;16.00;99.90;;;;;;5077806;28;20202;-82
2023/09/07 03:47:46;;;;;;;6.17;5.67;;;15.90;99.90;;;;;;5079407;28;20164;-84
2023/09/07 03:50:12;;;;;;;6.97;5.37;;;15.90;99.90;;;;;;5081030;28;20207;-81
2023/09/07 03:52:37;;;;;;;6.40;5.73;;;15.90;99.90;;;;;;5082480;28;20152;-83
2023/09/07 03:55:04;;;;;;;5.53;5.13;;;15.90;99.90;;;;;;5079886;28;20186;-79
2023/09/07 03:57:29;;;;;;;5.53;5.10;;;15.90;99.90;;;;;;5081749;28;20183;-79
2023/09/07 03:59:56;;;;;;;14.93;5.20;;;15.90;99.90;;;;;;5073398;28;20382;-80
2023/09/07 04:02:23;;;;;;;6.40;5.77;;;15.80;99.90;;;;;;5073208;28;20168;-80
2023/09/07 04:04:50;;;;;;;6.57;5.47;;;15.80;99.90;;;;;;5081844;28;20175;-86
2023/09/07 04:07:16;;;;;;;5.57;5.07;;;15.80;99.90;;;;;;5081910;28;20155;-84
2023/09/07 04:09:43;;;;;;;5.93;5.23;;;15.80;99.90;;;;;;5064541;28;20172;-83
2023/09/07 04:12:09;;;;;;;6.07;5.57;;;15.90;99.90;;;;;;5078889;28;20169;-88
2023/09/07 04:14:35;;;;;;;5.83;5.30;;;15.80;99.90;;;;;;5070734;28;20256;-86
2023/09/07 04:17:01;;;;;;;5.47;4.97;;;15.80;99.90;;;;;;5077095;28;20187;-86
2023/09/07 04:19:27;;;;;;;5.53;5.13;;;15.80;99.90;;;;;;5065641;28;20676;-87
2023/09/07 04:21:53;;;;;;;5.80;5.20;;;15.80;99.90;;;;;;5069640;28;20192;-86
2023/09/07 04:24:18;;;;;;;6.63;5.43;;;15.70;99.90;;;;;;5068359;28;20176;-84
2023/09/07 04:26:44;;;;;;;6.43;5.20;;;15.70;99.90;;;;;;5067651;28;20184;-86
2023/09/07 04:29:14;;;;;;;5.43;4.93;;;15.70;99.90;;;;;;5070256;28;20233;-87
2023/09/07 04:31:39;;;;;;;6.23;5.33;;;15.80;99.90;;;;;;5074060;28;20229;-85
2023/09/07 04:34:05;;;;;;;5.67;5.17;;;15.80;99.90;;;;;;5076484;28;20155;-83
2023/09/07 04:36:31;;;;;;;6.10;5.60;;;15.80;99.90;;;;;;5067737;28;20184;-84
2023/09/07 04:38:57;;;;;;;6.20;5.60;;;15.80;99.90;;;;;;5070066;28;20161;-83
2023/09/07 04:41:23;;;;;;;6.07;5.47;;;15.70;99.90;;;;;;5074598;28;20187;-86
2023/09/07 04:43:49;;;;;;;5.90;5.40;;;15.70;99.90;;;;;;5066211;28;20193;-83
2023/09/07 04:46:16;;;;;;;6.20;5.60;;;15.70;99.90;;;;;;5064419;28;20270;-84
2023/09/07 04:48:43;;;;;;;5.83;5.40;;;15.70;99.90;;;;;;5064659;28;20232;-86
2023/09/07 04:51:10;;;;;;;5.53;5.13;;;15.80;99.90;;;;;;5074708;28;20276;-79
2023/09/07 04:53:37;;;;;;;6.03;5.43;;;15.80;99.90;;;;;;5072238;28;20169;-79
2023/09/07 04:56:04;;;;;;;5.87;5.37;;;15.80;99.90;;;;;;5064531;28;20180;-83
2023/09/07 04:58:30;;;;;;;5.30;4.90;;;15.80;99.90;;;;;;5057289;28;20246;-85
2023/09/07 05:01:10;;;;;;;6.33;5.73;;;15.90;99.90;;;;;;5065106;28;20231;-86
2023/09/07 05:03:37;;;;;;;6.17;5.23;;;15.80;99.90;;;;;;5065381;28;20254;-88
2023/09/07 05:06:04;;;;;;;7.93;5.60;;;15.80;99.90;;;;;;5063962;28;20192;-88
2023/09/07 05:08:30;;;;;;;5.87;5.10;;;15.80;99.90;;;;;;5065897;28;20186;-88
2023/09/07 05:10:57;;;;;;;5.97;5.37;;;15.70;99.90;;;;;;5063576;28;20231;-83
2023/09/07 05:13:23;;;;;;;5.70;5.20;;;15.80;99.90;;;;;;5061840;28;20530;-81
2023/09/07 05:15:50;;;;;;;5.70;5.20;;;15.80;99.90;;;;;;5065266;28;20168;-86
2023/09/07 05:18:17;;;;;;;6.83;5.13;;;15.80;99.90;;;;;;5066068;28;20180;-87
2023/09/07 05:20:44;;;;;;;8.23;5.90;;;15.80;99.90;;;;;;5064196;28;20266;-87
2023/09/07 05:23:12;;;;;;;6.03;5.50;;;16.50;99.90;;;;;;5065404;28;20162;-86
2023/09/07 05:25:45;;;;;;;5.90;5.40;;;15.90;99.90;;;;;;5069388;28;20645;-87
2023/09/07 05:28:14;;;;;;;6.13;5.63;;;16.00;99.90;;;;;;5065149;28;20160;-85
2023/09/07 05:30:41;;;;;;;6.73;5.87;;;16.00;99.90;;;;;;5064742;28;20179;-87
2023/09/07 05:33:12;;;;;;;7.90;5.40;;;16.10;99.90;;;;;;5063066;28;20188;-85
2023/09/07 05:35:39;;;;;;;6.33;5.27;;;16.10;99.90;;;;;;5060949;28;20699;-84
2023/09/07 05:38:06;;;;;;;7.40;5.20;;;16.10;99.90;;;;;;5066324;28;20298;-80
2023/09/07 05:40:39;;;;;;;6.30;5.80;;;16.10;99.90;;;;;;5067352;28;20203;-84
2023/09/07 05:43:05;;;;;;;5.73;5.13;;;16.20;99.90;;;;;;5063054;28;20172;-84
2023/09/07 05:45:41;;;;;;;6.87;5.97;;;16.20;99.90;;;;;;5061355;28;20187;-78
2023/09/07 05:48:09;;;;;;;5.83;5.33;;;16.30;99.90;;;;;;5061647;28;20211;-86
2023/09/07 05:50:37;;;;;;;6.07;5.57;;;16.30;99.90;;;;;;5062795;28;20208;-87
2023/09/07 05:53:04;;;;;;;5.67;5.17;;;16.40;99.90;;;;;;5061700;28;20179;-88
2023/09/07 05:55:30;;;;;;;7.30;5.50;;;16.50;99.90;;;;;;5063550;28;20168;-87
2023/09/07 05:57:57;;;;;;;5.10;4.70;;;16.50;99.90;;;;;;5064353;28;20176;-87
2023/09/07 06:00:23;;;;;;;5.93;5.33;;;16.60;99.90;;;;;;5071761;28;20271;-83
2023/09/07 06:02:49;;;;;;;5.23;4.93;;;16.60;99.90;;;;;;5076426;28;20164;-87
2023/09/07 06:05:16;;;;;;;5.90;5.17;;;16.70;99.90;;;;;;5076538;28;20183;-80
2023/09/07 06:07:42;;;;;;;6.03;5.43;;;16.70;99.90;;;;;;5065755;28;20194;-80
2023/09/07 06:10:08;;;;;;;5.37;4.90;;;16.80;99.90;;;;;;5063929;28;20580;-80
2023/09/07 06:12:33;;;;;;;5.77;5.27;;;16.90;99.90;;;;;;5062597;28;20186;-82
2023/09/07 06:15:00;;;;;;;5.57;5.17;;;17.00;99.90;;;;;;5064646;28;20220;-84
2023/09/07 06:17:28;;;;;;;5.30;4.90;;;17.10;99.90;;;;;;5062576;28;20210;-81
2023/09/07 06:19:55;;;;;;;5.10;4.70;;;17.10;99.90;;;;;;5071650;28;20199;-84
2023/09/07 06:22:20;;;;;;;7.07;5.00;;;17.10;99.90;;;;;;5076572;28;20176;-83
2023/09/07 06:24:46;;;;;;;5.67;4.93;;;17.20;99.90;;;;;;5066107;28;20641;-85
2023/09/07 06:27:12;;;;;;;7.50;5.27;;;17.20;99.90;;;;;;5064030;28;20172;-86
2023/09/07 06:29:39;;;;;;;6.17;4.50;;;17.30;99.90;;;;;;5077347;28;20254;-85
2023/09/07 06:32:05;;;;;;;5.73;5.13;;;17.30;99.90;;;;;;5068558;28;20243;-80
2023/09/07 06:34:30;;;;;;;5.10;4.70;;;17.40;99.90;;;;;;5071335;28;20179;-81
2023/09/07 06:36:56;;;;;;;5.17;4.73;;;17.50;99.90;;;;;;5063626;28;20240;-83
2023/09/07 06:39:22;;;;;;;5.20;4.80;;;17.60;99.90;;;;;;5060569;28;20195;-86
2023/09/07 06:41:49;;;;;;;4.97;4.57;;;17.60;99.90;;;;;;5058414;28;20191;-86
2023/09/07 06:44:15;;;;;;;4.97;4.57;;;17.60;99.90;;;;;;5060261;28;20164;-81
2023/09/07 06:46:41;;;;;;;5.30;4.80;;;17.70;99.90;;;;;;5062434;28;20320;-87
2023/09/07 06:49:07;;;;;;;5.27;4.70;;;17.80;99.90;;;;;;5060800;28;20649;-86
2023/09/07 06:51:33;;;;;;;5.40;4.90;;;17.90;99.90;;;;;;5058928;28;20641;-80
2023/09/07 06:53:59;;;;;;;4.97;4.53;;;17.90;99.90;;;;;;5058946;28;20188;-87
2023/09/07 06:56:26;;;;;;;4.87;4.47;;;17.90;99.90;;;;;;5059382;28;20187;-83
2023/09/07 06:58:52;;;;;;;5.57;5.10;;;18.00;99.90;;;;;;5060956;28;20240;-81
2023/09/07 07:01:20;;;;;;;5.20;4.80;;;18.10;99.90;;;;;;5064501;28;20239;-80
2023/09/07 07:03:46;;;;;;;5.53;4.90;;;18.10;99.90;;;;;;5056789;28;20270;-80
2023/09/07 07:06:12;;;;;;;5.30;4.77;;;18.20;99.90;;;;;;5056438;28;20249;-83
2023/09/07 07:08:38;;;;;;;5.47;4.73;;;18.20;99.90;;;;;;5054647;28;20354;-79
2023/09/07 07:11:03;;;;;;;4.97;4.47;;;18.30;99.90;;;;;;5055285;28;20195;-80
2023/09/07 07:13:29;;;;;;;5.20;4.87;;;18.30;99.90;;;;;;5056206;28;20262;-78
2023/09/07 07:15:55;;;;;;;5.47;4.70;;;18.40;99.90;;;;;;5055373;28;20528;-81
2023/09/07 07:18:20;;;;;;;4.93;4.53;;;18.40;99.90;;;;;;5055919;28;20547;-82
2023/09/07 07:20:46;;;;;;;4.53;4.13;;;18.50;99.90;;;;;;5055609;28;20713;-82
2023/09/07 07:23:15;;;;;;;4.70;4.30;;;18.50;99.90;;;;;;5055157;28;20263;-81
2023/09/07 07:25:40;;;;;;;5.43;4.97;;;18.60;99.90;;;;;;5055906;28;20186;-80
2023/09/07 07:28:07;;;;;;;5.00;4.60;;;18.60;99.90;;;;;;5055364;28;20172;-80
2023/09/07 07:30:38;;;;;;;5.70;4.77;;;18.80;99.90;;;;;;5055558;28;20236;-81
2023/09/07 07:33:04;;;;;;;5.10;4.60;;;18.90;99.90;;;;;;5054485;28;20619;-82
2023/09/07 07:35:31;;;;;;;4.87;4.57;;;18.90;99.90;;;;;;5055730;28;20176;-81
2023/09/07 07:37:57;;;;;;;4.70;4.30;;;19.00;99.90;;;;;;5054679;28;20176;-80
2023/09/07 07:40:22;;;;;;;5.43;4.57;;;19.10;99.90;;;;;;5058586;28;20207;-82
2023/09/07 07:42:51;;;;;;;4.77;4.47;;;19.20;99.90;;;;;;5059252;28;20183;-81
2023/09/07 07:45:19;;;;;;;6.60;6.07;;;19.40;99.90;;;;;;5058609;28;20207;-83
2023/09/07 07:47:46;;;;;;;5.27;4.77;;;19.50;99.90;;;;;;5058272;28;20191;-83
2023/09/07 07:50:12;;;;;;;6.07;5.30;;;19.50;99.90;;;;;;5055434;28;20219;-83
2023/09/07 07:52:38;;;;;;;7.27;4.83;;;19.50;99.90;;;;;;5055503;28;20172;-85
2023/09/07 07:55:04;;;;;;;5.60;5.20;;;19.60;99.90;;;;;;5061032;28;20705;-80
2023/09/07 07:57:31;;;;;;;5.10;4.70;;;19.60;99.90;;;;;;5061653;28;20171;-83
2023/09/07 07:59:57;;;;;;;5.40;4.90;;;19.70;99.90;;;;;;5055625;28;20243;-82
2023/09/07 08:02:23;;;;;;;5.13;4.63;;;19.80;99.90;;;;;;5058613;28;20175;-82
2023/09/07 08:04:48;;;;;;;4.03;3.80;;;19.90;99.90;;;;;;5056314;28;20179;-81
2023/09/07 08:07:14;;;;;;;4.13;3.90;;;20.00;99.90;;;;;;5062688;28;20186;-83
2023/09/07 08:09:40;;;;;;;4.60;4.20;;;20.10;99.90;;;;;;5069299;28;20171;-83
2023/09/07 08:12:06;;;;;;;6.67;4.30;;;20.20;99.90;;;;;;5060889;28;20208;-81
2023/09/07 08:14:32;;;;;;;5.50;5.10;;;20.40;99.90;;;;;;5056618;28;20543;-81
2023/09/07 08:16:58;;;;;;;5.00;4.53;;;20.50;99.90;;;;;;5054591;28;20195;-83
2023/09/07 08:19:24;;;;;;;4.87;4.47;;;20.50;99.90;;;;;;5058901;28;20274;-83
2023/09/07 08:21:50;;;;;;;4.07;3.77;;;20.60;99.90;;;;;;5055239;28;20196;-83
2023/09/07 08:24:18;;;;;;;3.93;3.63;;;20.60;99.90;;;;;;5056345;28;20539;-82
2023/09/07 08:26:43;;;;;;;4.77;4.07;;;20.70;99.90;;;;;;5055059;28;20164;-82
2023/09/07 08:29:10;;;;;;;4.87;4.47;;;20.70;99.90;;;;;;5053950;28;20168;-80
2023/09/07 08:31:38;;;;;;;7.80;4.50;;;20.80;99.90;;;;;;5056807;28;20179;-83
2023/09/07 08:34:05;;;;;;;4.73;4.30;;;20.90;99.90;;;;;;5058723;28;20168;-80
2023/09/07 08:36:33;;;;;;;4.77;4.37;;;21.00;99.90;;;;;;5059469;28;20184;-82
2023/09/07 08:39:09;;;;;;;4.30;4.00;;;21.00;99.90;;;;;;5057813;28;20172;-77
2023/09/07 08:41:43;;;;;;;4.70;3.87;;;21.00;99.90;;;;;;5057975;28;20163;-78
2023/09/07 08:44:17;;;;;;;3.90;3.60;;;21.10;99.90;;;;;;5065694;28;20171;-79
2023/09/07 08:46:44;;;;;;;4.87;4.37;;;21.20;99.90;;;;;;5074112;28;20176;-77
2023/09/07 08:49:13;;;;;;;3.77;3.57;;;21.30;99.90;;;;;;5059528;28;20172;-80
2023/09/07 08:51:39;;;;;;;4.67;4.10;;;21.40;99.90;;;;;;5057503;28;20679;-75
2023/09/07 08:54:06;;;;;;;3.90;3.70;;;21.40;99.90;;;;;;5058708;28;20195;-82
2023/09/07 08:56:33;;;;;;;4.17;3.77;;;21.50;99.90;;;;;;5058003;28;20164;-82
2023/09/07 08:58:59;;;;;;;4.83;3.83;;;21.60;99.90;;;;;;5057560;28;20172;-81
2023/09/07 09:01:24;;;;;;;4.00;3.70;;;21.60;99.90;;;;;;5057460;28;20247;-78
2023/09/07 09:03:51;;;;;;;3.60;3.40;;;21.60;99.90;;;;;;5058852;28;20171;-82
2023/09/07 09:06:22;;;;;;;4.13;3.87;;;21.60;99.90;;;;;;5058597;28;20183;-78
2023/09/07 09:08:56;;;;;;;4.43;3.67;;;21.70;99.90;;;;;;5058411;28;20160;-79
2023/09/07 09:11:23;;;;;;;3.83;3.53;;;21.70;99.90;;;;;;5058114;28;20229;-79
2023/09/07 09:13:50;;;;;;;4.00;3.70;;;21.70;99.90;;;;;;5057802;28;20176;-80
2023/09/07 09:16:16;;;;;;;3.97;3.57;;;21.70;99.90;;;;;;5056910;28;20246;-80
2023/09/07 09:18:57;;;;;;;4.13;3.83;;;21.80;99.90;;;;;;5057426;28;20322;-82
2023/09/07 09:21:24;;;;;;;5.20;4.17;;;21.80;99.90;;;;;;5056245;28;20215;-80
2023/09/07 09:23:52;;;;;;;5.28;4.88;;;21.80;99.90;;;;;;5056865;28;20183;-82
2023/09/07 09:26:18;;;;;;;6.03;3.97;;;21.90;99.90;;;;;;5059685;28;20172;-82
2023/09/07 09:28:45;;;;;;;4.50;4.10;;;22.00;99.90;;;;;;5057074;28;20180;-82
2023/09/07 09:31:14;;;;;;;5.20;4.27;;;22.00;99.90;;;;;;5057576;28;20247;-82
2023/09/07 09:33:41;;;;;;;5.73;4.10;;;22.00;99.90;;;;;;5061929;28;20184;-82
2023/09/07 09:36:07;;;;;;;4.70;4.00;;;22.10;99.90;;;;;;5066587;28;20278;-82
2023/09/07 09:38:34;;;;;;;4.23;3.97;;;22.20;99.90;;;;;;5055864;28;20184;-81
2023/09/07 09:41:03;;;;;;;4.27;3.87;;;22.20;99.90;;;;;;5057706;28;20286;-82
2023/09/07 09:43:29;;;;;;;6.07;3.90;;;22.10;99.90;;;;;;5065111;28;20175;-82
2023/09/07 09:45:56;;;;;;;4.00;3.60;;;22.20;99.90;;;;;;5070259;28;20171;-82
2023/09/07 09:48:22;;;;;;;3.47;3.20;;;22.20;99.90;;;;;;5068897;28;20175;-81
2023/09/07 09:50:49;;;;;;;3.35;3.15;;;22.20;99.90;;;;;;5058665;28;20767;-82
2023/09/07 09:53:20;;;;;;;3.73;3.53;;;22.20;99.90;;;;;;5057567;28;20171;-82
2023/09/07 09:55:49;;;;;;;4.28;3.97;;;22.30;99.90;;;;;;5059112;28;20168;-83
2023/09/07 09:58:16;;;;;;;8.35;7.47;;;22.30;99.90;;;;;;5057587;28;20172;-83
2023/09/07 10:00:44;;;;;;;4.30;3.90;;;22.30;99.90;;;;;;5056704;28;20250;-81
2023/09/07 10:03:27;;;;;;;4.57;4.20;;;22.30;99.90;;;;;;5058319;28;20623;-81
2023/09/07 10:05:53;;;;;;;3.33;3.13;;;22.40;99.90;;;;;;5061287;28;20171;-82
2023/09/07 10:08:22;;;;;;;3.10;2.90;;;22.50;99.90;;;;;;5058724;28;20256;-81
2023/09/07 10:10:53;;;;;;;4.20;3.97;;;22.60;99.90;;;;;;5057468;28;20178;-81
2023/09/07 10:13:33;;;;;;;3.20;3.00;;;22.60;99.90;;;;;;5058074;28;20152;-81
2023/09/07 10:16:09;;;;;;;3.75;3.00;;;22.60;99.90;;;;;;5057128;28;20160;-82
2023/09/07 10:18:37;;;;;;;3.60;3.40;;;22.60;99.90;;;;;;5057515;28;20241;-81
2023/09/07 10:21:03;;;;;;;3.55;3.33;;;22.70;99.90;;;;;;5057022;28;20199;-80
2023/09/07 10:23:43;;;;;;;3.40;3.08;;;22.70;99.90;;;;;;5057300;28;20317;-82
2023/09/07 10:26:14;;;;;;;3.90;3.10;;;22.70;99.90;;;;;;5055941;28;20175;-81
2023/09/07 10:28:40;;;;;;;4.13;3.80;;;22.70;99.90;;;;;;5055977;28;20176;-80
2023/09/07 10:31:13;;;;;;;3.58;3.38;;;22.60;99.90;;;;;;5054785;28;20182;-79
2023/09/07 10:33:39;;;;;;;3.40;3.20;;;22.70;99.90;;;;;;5056535;28;20160;-82
2023/09/07 10:36:05;;;;;;;5.63;3.70;;;22.70;99.90;;;;;;5057161;28;20172;-79
2023/09/07 10:38:35;;;;;;;4.50;3.73;;;22.70;99.90;;;;;;5057017;28;20172;-80
2023/09/07 10:41:04;;;;;;;3.60;3.30;;;22.70;99.90;;;;;;5057414;28;20235;-82
2023/09/07 10:43:31;;;;;;;4.45;3.60;;;22.70;99.90;;;;;;5056277;28;20164;-81
2023/09/07 10:45:58;;;;;;;3.60;3.30;;;22.80;99.90;;;;;;5057444;28;20202;-79
2023/09/07 10:48:25;;;;;;;3.10;2.90;;;22.90;99.90;;;;;;5056080;28;20218;-78
2023/09/07 10:50:52;;;;;;;3.28;3.00;;;22.90;99.90;;;;;;5054922;28;20254;-82
2023/09/07 10:53:31;;;;;;;3.50;3.20;;;22.90;99.90;;;;;;5055798;28;20258;-81
2023/09/07 10:55:58;;;;;;;3.67;3.37;;;23.00;99.90;;;;;;5055878;28;20160;-80
2023/09/07 10:58:29;;;;;;;5.40;3.37;;;23.00;99.90;;;;;;5056167;28;20259;-80
2023/09/07 11:00:56;;;;;;;6.38;5.72;;;23.00;99.90;;;;;;5055767;28;20304;-79
2023/09/07 11:03:22;;;;;;;4.20;3.90;;;23.10;99.90;;;;;;5055690;28;20258;-79
2023/09/07 11:05:51;;;;;;;3.38;3.17;;;23.20;99.90;;;;;;5057524;28;20636;-81
2023/09/07 11:08:17;;;;;;;3.15;2.95;;;23.20;99.90;;;;;;5060908;28;20176;-77
2023/09/07 11:10:42;;;;;;;3.15;2.95;;;23.20;99.90;;;;;;5068716;28;20172;-78
2023/09/07 11:13:09;;;;;;;3.30;3.10;;;23.30;99.90;;;;;;5066098;28;20586;-79
2023/09/07 11:15:35;;;;;;;2.80;2.70;;;23.30;99.60;;;;;;5058226;28;20265;-77
2023/09/07 11:18:08;;;;;;;3.22;3.00;;;23.40;99.20;;;;;;5062663;28;20255;-79
2023/09/07 11:20:35;;;;;;;3.47;3.17;;;23.30;99.30;;;;;;5059011;28;20196;-80
2023/09/07 11:23:04;;;;;;;3.15;2.95;;;23.30;99.60;;;;;;5063510;28;20194;-81
2023/09/07 11:25:38;;;;;;;3.00;2.80;;;23.40;99.40;;;;;;5064475;28;20251;-81
2023/09/07 11:28:05;;;;;;;4.00;3.03;;;23.50;99.40;;;;;;5066676;28;20350;-80
2023/09/07 11:30:31;;;;;;;3.58;3.38;;;23.50;99.90;;;;;;5067440;28;20195;-77
2023/09/07 11:33:07;;;;;;;3.60;3.33;;;23.60;99.90;;;;;;5066221;28;20204;-81
2023/09/07 11:35:34;;;;;;;3.55;3.25;;;23.50;99.90;;;;;;5058725;28;20172;-82
2023/09/07 11:38:06;;;;;;;3.47;3.28;;;23.60;99.90;;;;;;5056760;28;20172;-81
2023/09/07 11:40:32;;;;;;;3.17;2.97;;;23.60;99.90;;;;;;5056960;28;20222;-82
2023/09/07 11:42:58;;;;;;;2.92;2.78;;;23.60;99.70;;;;;;5056936;28;20176;-82
2023/09/07 11:45:24;;;;;;;3.05;2.80;;;23.60;99.70;;;;;;5060156;28;20290;-82
2023/09/07 11:47:50;;;;;;;3.35;3.15;;;23.60;99.00;;;;;;5060814;28;20172;-82
2023/09/07 11:50:19;;;;;;;2.88;2.78;;;23.60;98.70;;;;;;5055522;28;20222;-82
2023/09/07 11:52:45;;;;;;;3.83;3.40;;;23.70;98.40;;;;;;5056244;28;20164;-80
2023/09/07 11:55:13;;;;;;;3.20;3.00;;;23.70;98.40;;;;;;5054391;28;20254;-79
2023/09/07 11:57:40;;;;;;;3.35;3.05;;;23.70;98.20;;;;;;5055508;28;20164;-82
2023/09/07 12:00:09;;;;;;;2.97;2.80;;;23.70;98.00;;;;;;5055588;28;20220;-84
2023/09/07 12:02:35;;;;;;;5.65;5.15;;;23.60;98.00;;;;;;5057606;28;20164;-81
2023/09/07 12:05:03;;;;;;;3.85;3.55;;;23.70;98.20;;;;;;5055457;28;20179;-83
2023/09/07 12:07:29;;;;;;;3.92;3.63;;;23.70;98.30;;;;;;5053456;28;20190;-81
2023/09/07 12:09:57;;;;;;;4.30;3.90;;;23.70;98.10;;;;;;5060255;28;20190;-81
2023/09/07 12:12:23;;;;;;;4.32;3.35;;;23.60;97.70;;;;;;5058569;28;20183;-82
2023/09/07 12:14:49;;;;;;;3.55;3.35;;;23.60;97.90;;;;;;5059581;28;20176;-80
2023/09/07 12:17:15;;;;;;;3.60;3.38;;;23.60;98.20;;;;;;5058740;28;20237;-82
2023/09/07 12:19:45;;;;;;;3.38;3.17;;;23.60;98.50;;;;;;5058696;28;20242;-81
2023/09/07 12:22:11;;;;;;;3.72;3.17;;;23.60;98.70;;;;;;5058802;28;20527;-81
2023/09/07 12:24:37;;;;;;;3.25;3.05;;;23.60;98.30;;;;;;5058263;28;20172;-79
2023/09/07 12:27:03;;;;;;;3.25;3.05;;;23.60;97.70;;;;;;5058611;28;20266;-80
2023/09/07 12:29:29;;;;;;;7.30;6.55;;;23.60;98.20;;;;;;5058628;28;20180;-79
2023/09/07 12:31:55;;;;;;;4.40;4.00;;;23.70;98.10;;;;;;5058834;28;20175;-80
2023/09/07 12:34:21;;;;;;;6.78;5.10;;;23.70;98.50;;;;;;5059174;28;20176;-80
2023/09/07 12:36:47;;;;;;;5.88;4.78;;;23.80;98.80;;;;;;5059606;28;20569;-81
2023/09/07 12:39:13;;;;;;;6.35;5.05;;;23.70;98.80;;;;;;5058252;28;20206;-80
2023/09/07 12:41:39;;;;;;;4.30;3.88;;;23.80;99.10;;;;;;5058765;28;20191;-81
2023/09/07 12:44:06;;;;;;;3.55;3.35;;;23.80;98.70;;;;;;5058313;28;20171;-81
2023/09/07 12:46:32;;;;;;;4.10;3.20;;;23.90;98.80;;;;;;5058686;28;20168;-81